sensor_id;sensor_type;location;lat;lon;timestamp;P1;durP1;ratioP1;P2;durP2;ratioP2
67757;SDS011;54562;47.620;18.786;2023-03-31T00:00:57;11.30;;;6.60;;
67757;SDS011;54562;47.620;18.786;2023-03-31T00:04:05;9.90;;;5.80;;
67757;SDS011;54562;47.620;18.786;2023-03-31T00:07:15;10.70;;;5.80;;
67757;SDS011;54562;47.620;18.786;2023-03-31T00:10:26;9.50;;;6.20;;
67757;SDS011;54562;47.620;18.786;2023-03-31T00:13:36;10.30;;;6.30;;
67757;SDS011;54562;47.620;18.786;2023-03-31T00:16:45;10.70;;;6.30;;
67757;SDS011;54562;47.620;18.786;2023-03-31T00:19:54;11.50;;;6.00;;
67757;SDS011;54562;47.620;18.786;2023-03-31T00:23:04;9.90;;;5.70;;
67757;SDS011;54562;47.620;18.786;2023-03-31T00:26:15;9.20;;;6.10;;
67757;SDS011;54562;47.620;18.786;2023-03-31T00:29:23;10.30;;;6.00;;
67757;SDS011;54562;47.620;18.786;2023-03-31T00:32:31;11.10;;;6.60;;
67757;SDS011;54562;47.620;18.786;2023-03-31T00:35:40;11.80;;;6.60;;
67757;SDS011;54562;47.620;18.786;2023-03-31T00:38:50;9.70;;;6.20;;
67757;SDS011;54562;47.620;18.786;2023-03-31T00:42:00;11.90;;;6.80;;
67757;SDS011;54562;47.620;18.786;2023-03-31T00:45:24;11.00;;;6.20;;
67757;SDS011;54562;47.620;18.786;2023-03-31T00:48:37;11.10;;;6.30;;
67757;SDS011;54562;47.620;18.786;2023-03-31T00:51:45;9.60;;;6.20;;
67757;SDS011;54562;47.620;18.786;2023-03-31T00:55:00;14.00;;;6.70;;
67757;SDS011;54562;47.620;18.786;2023-03-31T00:58:15;10.70;;;6.20;;
67757;SDS011;54562;47.620;18.786;2023-03-31T01:01:26;10.80;;;6.20;;
67757;SDS011;54562;47.620;18.786;2023-03-31T01:04:38;10.50;;;6.00;;
67757;SDS011;54562;47.620;18.786;2023-03-31T01:07:52;10.70;;;6.30;;
67757;SDS011;54562;47.620;18.786;2023-03-31T01:11:04;10.80;;;6.10;;
67757;SDS011;54562;47.620;18.786;2023-03-31T01:14:15;9.70;;;5.70;;
67757;SDS011;54562;47.620;18.786;2023-03-31T01:17:24;9.90;;;5.60;;
67757;SDS011;54562;47.620;18.786;2023-03-31T01:20:40;11.20;;;5.70;;
67757;SDS011;54562;47.620;18.786;2023-03-31T01:24:46;8.60;;;5.30;;
67757;SDS011;54562;47.620;18.786;2023-03-31T01:28:18;9.20;;;5.60;;
67757;SDS011;54562;47.620;18.786;2023-03-31T01:32:02;8.70;;;5.40;;
67757;SDS011;54562;47.620;18.786;2023-03-31T01:35:50;8.80;;;5.20;;
67757;SDS011;54562;47.620;18.786;2023-03-31T01:43:46;9.80;;;5.20;;
67757;SDS011;54562;47.620;18.786;2023-03-31T01:47:08;10.60;;;5.40;;
67757;SDS011;54562;47.620;18.786;2023-03-31T01:50:25;8.40;;;4.90;;
67757;SDS011;54562;47.620;18.786;2023-03-31T01:53:44;9.10;;;4.90;;
67757;SDS011;54562;47.620;18.786;2023-03-31T02:00:10;9.70;;;4.70;;
67757;SDS011;54562;47.620;18.786;2023-03-31T02:03:25;8.60;;;5.40;;
67757;SDS011;54562;47.620;18.786;2023-03-31T02:06:40;9.20;;;5.40;;
67757;SDS011;54562;47.620;18.786;2023-03-31T02:09:57;9.70;;;5.50;;
67757;SDS011;54562;47.620;18.786;2023-03-31T02:13:09;9.80;;;4.80;;
67757;SDS011;54562;47.620;18.786;2023-03-31T02:16:23;10.40;;;5.50;;
67757;SDS011;54562;47.620;18.786;2023-03-31T02:19:37;8.40;;;5.10;;
67757;SDS011;54562;47.620;18.786;2023-03-31T02:22:49;9.80;;;5.20;;
67757;SDS011;54562;47.620;18.786;2023-03-31T02:26:03;8.70;;;5.20;;
67757;SDS011;54562;47.620;18.786;2023-03-31T02:29:16;8.60;;;5.00;;
67757;SDS011;54562;47.620;18.786;2023-03-31T02:32:28;9.10;;;5.30;;
67757;SDS011;54562;47.620;18.786;2023-03-31T02:35:41;8.40;;;5.60;;
67757;SDS011;54562;47.620;18.786;2023-03-31T02:38:52;10.70;;;5.20;;
67757;SDS011;54562;47.620;18.786;2023-03-31T02:42:06;9.10;;;5.30;;
67757;SDS011;54562;47.620;18.786;2023-03-31T02:45:39;10.50;;;5.10;;
67757;SDS011;54562;47.620;18.786;2023-03-31T02:48:52;8.30;;;4.80;;
67757;SDS011;54562;47.620;18.786;2023-03-31T02:52:33;8.40;;;4.80;;
67757;SDS011;54562;47.620;18.786;2023-03-31T02:56:12;9.40;;;4.90;;
67757;SDS011;54562;47.620;18.786;2023-03-31T02:59:40;9.20;;;5.10;;
67757;SDS011;54562;47.620;18.786;2023-03-31T03:03:06;9.10;;;5.00;;
67757;SDS011;54562;47.620;18.786;2023-03-31T03:06:34;8.20;;;5.10;;
67757;SDS011;54562;47.620;18.786;2023-03-31T03:09:54;8.40;;;5.30;;
67757;SDS011;54562;47.620;18.786;2023-03-31T03:13:12;10.30;;;5.70;;
67757;SDS011;54562;47.620;18.786;2023-03-31T03:16:28;10.30;;;5.50;;
67757;SDS011;54562;47.620;18.786;2023-03-31T03:19:43;8.40;;;5.10;;
67757;SDS011;54562;47.620;18.786;2023-03-31T03:22:56;8.70;;;5.00;;
67757;SDS011;54562;47.620;18.786;2023-03-31T03:26:04;8.70;;;4.80;;
67757;SDS011;54562;47.620;18.786;2023-03-31T03:29:13;8.20;;;4.70;;
67757;SDS011;54562;47.620;18.786;2023-03-31T03:32:21;9.40;;;4.70;;
67757;SDS011;54562;47.620;18.786;2023-03-31T03:35:29;8.20;;;4.90;;
67757;SDS011;54562;47.620;18.786;2023-03-31T03:38:38;9.70;;;5.00;;
67757;SDS011;54562;47.620;18.786;2023-03-31T03:41:46;9.60;;;5.30;;
67757;SDS011;54562;47.620;18.786;2023-03-31T03:44:54;8.30;;;4.80;;
67757;SDS011;54562;47.620;18.786;2023-03-31T03:48:02;9.20;;;5.00;;
67757;SDS011;54562;47.620;18.786;2023-03-31T03:51:10;9.30;;;5.30;;
67757;SDS011;54562;47.620;18.786;2023-03-31T03:54:18;10.20;;;5.00;;
67757;SDS011;54562;47.620;18.786;2023-03-31T03:57:26;9.80;;;5.00;;
67757;SDS011;54562;47.620;18.786;2023-03-31T04:00:34;7.30;;;4.50;;
67757;SDS011;54562;47.620;18.786;2023-03-31T04:03:42;8.50;;;4.40;;
67757;SDS011;54562;47.620;18.786;2023-03-31T04:06:51;7.90;;;4.30;;
67757;SDS011;54562;47.620;18.786;2023-03-31T04:09:59;9.40;;;4.40;;
67757;SDS011;54562;47.620;18.786;2023-03-31T04:13:07;9.40;;;5.10;;
67757;SDS011;54562;47.620;18.786;2023-03-31T04:16:15;12.00;;;9.00;;
67757;SDS011;54562;47.620;18.786;2023-03-31T04:19:23;14.40;;;10.80;;
67757;SDS011;54562;47.620;18.786;2023-03-31T04:22:31;14.10;;;10.80;;
67757;SDS011;54562;47.620;18.786;2023-03-31T04:25:44;12.70;;;9.40;;
67757;SDS011;54562;47.620;18.786;2023-03-31T04:28:53;11.60;;;6.90;;
67757;SDS011;54562;47.620;18.786;2023-03-31T04:32:04;10.60;;;5.60;;
67757;SDS011;54562;47.620;18.786;2023-03-31T04:35:13;11.10;;;5.60;;
67757;SDS011;54562;47.620;18.786;2023-03-31T04:38:22;10.20;;;5.30;;
67757;SDS011;54562;47.620;18.786;2023-03-31T04:41:37;10.50;;;6.80;;
67757;SDS011;54562;47.620;18.786;2023-03-31T04:44:45;13.80;;;9.70;;
67757;SDS011;54562;47.620;18.786;2023-03-31T04:47:53;13.40;;;8.80;;
67757;SDS011;54562;47.620;18.786;2023-03-31T04:51:01;13.60;;;8.70;;
67757;SDS011;54562;47.620;18.786;2023-03-31T04:54:10;12.90;;;7.30;;
67757;SDS011;54562;47.620;18.786;2023-03-31T04:57:18;11.20;;;6.40;;
67757;SDS011;54562;47.620;18.786;2023-03-31T05:00:26;10.70;;;5.90;;
67757;SDS011;54562;47.620;18.786;2023-03-31T05:03:34;10.10;;;5.60;;
67757;SDS011;54562;47.620;18.786;2023-03-31T05:06:43;12.40;;;6.00;;
67757;SDS011;54562;47.620;18.786;2023-03-31T05:09:51;9.30;;;5.20;;
67757;SDS011;54562;47.620;18.786;2023-03-31T05:12:59;8.30;;;4.80;;
67757;SDS011;54562;47.620;18.786;2023-03-31T05:16:12;9.70;;;4.80;;
67757;SDS011;54562;47.620;18.786;2023-03-31T05:19:22;10.10;;;5.40;;
67757;SDS011;54562;47.620;18.786;2023-03-31T05:22:31;11.50;;;5.70;;
67757;SDS011;54562;47.620;18.786;2023-03-31T05:25:41;9.00;;;5.60;;
67757;SDS011;54562;47.620;18.786;2023-03-31T05:28:49;11.00;;;5.60;;
67757;SDS011;54562;47.620;18.786;2023-03-31T05:31:58;10.10;;;5.30;;
67757;SDS011;54562;47.620;18.786;2023-03-31T05:35:07;10.10;;;5.50;;
67757;SDS011;54562;47.620;18.786;2023-03-31T05:38:16;8.80;;;5.50;;
67757;SDS011;54562;47.620;18.786;2023-03-31T05:41:25;10.10;;;5.30;;
67757;SDS011;54562;47.620;18.786;2023-03-31T05:44:33;10.20;;;5.10;;
67757;SDS011;54562;47.620;18.786;2023-03-31T05:47:41;9.40;;;5.20;;
67757;SDS011;54562;47.620;18.786;2023-03-31T05:50:49;10.90;;;5.00;;
67757;SDS011;54562;47.620;18.786;2023-03-31T05:53:57;11.90;;;5.40;;
67757;SDS011;54562;47.620;18.786;2023-03-31T05:57:05;10.40;;;5.90;;
67757;SDS011;54562;47.620;18.786;2023-03-31T06:00:16;8.50;;;5.20;;
67757;SDS011;54562;47.620;18.786;2023-03-31T06:03:25;11.00;;;6.10;;
67757;SDS011;54562;47.620;18.786;2023-03-31T06:06:33;10.30;;;5.80;;
67757;SDS011;54562;47.620;18.786;2023-03-31T06:09:42;9.30;;;5.70;;
67757;SDS011;54562;47.620;18.786;2023-03-31T06:12:50;10.40;;;5.80;;
67757;SDS011;54562;47.620;18.786;2023-03-31T06:15:59;10.70;;;6.60;;
67757;SDS011;54562;47.620;18.786;2023-03-31T06:19:07;12.40;;;6.40;;
67757;SDS011;54562;47.620;18.786;2023-03-31T06:22:15;8.90;;;5.40;;
67757;SDS011;54562;47.620;18.786;2023-03-31T06:25:23;9.80;;;5.50;;
67757;SDS011;54562;47.620;18.786;2023-03-31T06:28:38;8.70;;;5.10;;
67757;SDS011;54562;47.620;18.786;2023-03-31T06:31:46;8.60;;;4.90;;
67757;SDS011;54562;47.620;18.786;2023-03-31T06:34:55;9.10;;;5.10;;
67757;SDS011;54562;47.620;18.786;2023-03-31T06:38:03;9.40;;;5.10;;
67757;SDS011;54562;47.620;18.786;2023-03-31T06:41:13;11.40;;;6.10;;
67757;SDS011;54562;47.620;18.786;2023-03-31T06:44:22;12.70;;;6.10;;
67757;SDS011;54562;47.620;18.786;2023-03-31T06:47:30;14.10;;;8.20;;
67757;SDS011;54562;47.620;18.786;2023-03-31T06:50:40;9.70;;;4.90;;
67757;SDS011;54562;47.620;18.786;2023-03-31T06:53:50;10.50;;;5.40;;
67757;SDS011;54562;47.620;18.786;2023-03-31T06:56:58;10.20;;;5.30;;
67757;SDS011;54562;47.620;18.786;2023-03-31T07:00:09;10.00;;;5.80;;
67757;SDS011;54562;47.620;18.786;2023-03-31T07:03:17;9.90;;;5.00;;
67757;SDS011;54562;47.620;18.786;2023-03-31T07:06:30;10.00;;;4.90;;
67757;SDS011;54562;47.620;18.786;2023-03-31T07:09:38;8.30;;;4.60;;
67757;SDS011;54562;47.620;18.786;2023-03-31T07:12:46;8.70;;;4.60;;
67757;SDS011;54562;47.620;18.786;2023-03-31T07:15:55;8.70;;;4.60;;
67757;SDS011;54562;47.620;18.786;2023-03-31T07:19:05;9.10;;;5.00;;
67757;SDS011;54562;47.620;18.786;2023-03-31T07:22:14;10.20;;;5.20;;
67757;SDS011;54562;47.620;18.786;2023-03-31T07:25:23;10.00;;;6.00;;
67757;SDS011;54562;47.620;18.786;2023-03-31T07:28:32;10.50;;;5.20;;
67757;SDS011;54562;47.620;18.786;2023-03-31T07:31:40;9.30;;;5.20;;
67757;SDS011;54562;47.620;18.786;2023-03-31T07:34:48;9.00;;;5.90;;
67757;SDS011;54562;47.620;18.786;2023-03-31T07:37:57;9.90;;;5.80;;
67757;SDS011;54562;47.620;18.786;2023-03-31T07:41:05;9.60;;;5.80;;
67757;SDS011;54562;47.620;18.786;2023-03-31T07:47:22;9.80;;;5.30;;
67757;SDS011;54562;47.620;18.786;2023-03-31T07:50:30;10.50;;;5.00;;
67757;SDS011;54562;47.620;18.786;2023-03-31T07:53:39;9.80;;;5.60;;
67757;SDS011;54562;47.620;18.786;2023-03-31T07:56:47;8.70;;;5.00;;
67757;SDS011;54562;47.620;18.786;2023-03-31T07:59:56;9.80;;;5.10;;
67757;SDS011;54562;47.620;18.786;2023-03-31T08:03:04;9.10;;;5.20;;
67757;SDS011;54562;47.620;18.786;2023-03-31T08:06:12;9.40;;;4.80;;
67757;SDS011;54562;47.620;18.786;2023-03-31T08:09:25;10.50;;;5.20;;
67757;SDS011;54562;47.620;18.786;2023-03-31T08:12:33;7.50;;;4.70;;
67757;SDS011;54562;47.620;18.786;2023-03-31T08:15:42;9.20;;;4.90;;
67757;SDS011;54562;47.620;18.786;2023-03-31T08:18:50;9.20;;;5.20;;
67757;SDS011;54562;47.620;18.786;2023-03-31T08:21:59;8.50;;;4.90;;
67757;SDS011;54562;47.620;18.786;2023-03-31T08:25:09;11.40;;;4.90;;
67757;SDS011;54562;47.620;18.786;2023-03-31T08:31:25;9.30;;;4.60;;
67757;SDS011;54562;47.620;18.786;2023-03-31T08:34:35;8.50;;;4.90;;
67757;SDS011;54562;47.620;18.786;2023-03-31T08:37:46;8.10;;;5.10;;
67757;SDS011;54562;47.620;18.786;2023-03-31T08:40:59;11.60;;;5.20;;
67757;SDS011;54562;47.620;18.786;2023-03-31T08:44:12;11.10;;;4.60;;
67757;SDS011;54562;47.620;18.786;2023-03-31T08:47:25;8.20;;;4.20;;
67757;SDS011;54562;47.620;18.786;2023-03-31T08:50:49;10.10;;;4.60;;
67757;SDS011;54562;47.620;18.786;2023-03-31T08:54:01;7.00;;;4.00;;
67757;SDS011;54562;47.620;18.786;2023-03-31T08:57:16;9.00;;;4.50;;
67757;SDS011;54562;47.620;18.786;2023-03-31T09:00:34;9.90;;;4.50;;
67757;SDS011;54562;47.620;18.786;2023-03-31T09:04:04;8.70;;;4.60;;
67757;SDS011;54562;47.620;18.786;2023-03-31T09:07:28;8.60;;;4.30;;
67757;SDS011;54562;47.620;18.786;2023-03-31T09:10:44;7.50;;;4.10;;
67757;SDS011;54562;47.620;18.786;2023-03-31T09:14:12;10.40;;;4.80;;
67757;SDS011;54562;47.620;18.786;2023-03-31T09:17:28;11.70;;;4.90;;
67757;SDS011;54562;47.620;18.786;2023-03-31T09:20:41;8.60;;;5.30;;
67757;SDS011;54562;47.620;18.786;2023-03-31T09:23:56;9.30;;;5.10;;
67757;SDS011;54562;47.620;18.786;2023-03-31T09:27:12;9.10;;;5.10;;
67757;SDS011;54562;47.620;18.786;2023-03-31T09:30:25;12.40;;;5.10;;
67757;SDS011;54562;47.620;18.786;2023-03-31T09:33:38;9.70;;;4.60;;
67757;SDS011;54562;47.620;18.786;2023-03-31T09:36:49;7.80;;;4.00;;
67757;SDS011;54562;47.620;18.786;2023-03-31T09:39:59;8.00;;;4.10;;
67757;SDS011;54562;47.620;18.786;2023-03-31T09:43:17;8.20;;;4.60;;
67757;SDS011;54562;47.620;18.786;2023-03-31T09:46:32;8.40;;;5.10;;
67757;SDS011;54562;47.620;18.786;2023-03-31T09:49:44;8.70;;;5.00;;
67757;SDS011;54562;47.620;18.786;2023-03-31T09:52:59;10.00;;;5.00;;
67757;SDS011;54562;47.620;18.786;2023-03-31T09:56:10;9.20;;;5.20;;
67757;SDS011;54562;47.620;18.786;2023-03-31T09:59:20;8.00;;;4.90;;
67757;SDS011;54562;47.620;18.786;2023-03-31T10:02:36;9.50;;;4.30;;
67757;SDS011;54562;47.620;18.786;2023-03-31T10:05:51;6.90;;;4.40;;
67757;SDS011;54562;47.620;18.786;2023-03-31T10:09:05;9.10;;;5.20;;
67757;SDS011;54562;47.620;18.786;2023-03-31T10:12:18;8.50;;;4.60;;
67757;SDS011;54562;47.620;18.786;2023-03-31T10:15:28;8.00;;;4.50;;
67757;SDS011;54562;47.620;18.786;2023-03-31T10:18:46;7.80;;;4.70;;
67757;SDS011;54562;47.620;18.786;2023-03-31T10:21:59;7.70;;;4.40;;
67757;SDS011;54562;47.620;18.786;2023-03-31T10:25:14;8.70;;;4.50;;
67757;SDS011;54562;47.620;18.786;2023-03-31T10:28:26;7.50;;;4.40;;
67757;SDS011;54562;47.620;18.786;2023-03-31T10:31:38;10.60;;;4.70;;
67757;SDS011;54562;47.620;18.786;2023-03-31T10:34:47;7.20;;;4.30;;
67757;SDS011;54562;47.620;18.786;2023-03-31T10:37:58;7.40;;;4.50;;
67757;SDS011;54562;47.620;18.786;2023-03-31T10:41:10;8.10;;;4.60;;
67757;SDS011;54562;47.620;18.786;2023-03-31T10:44:36;9.10;;;4.90;;
67757;SDS011;54562;47.620;18.786;2023-03-31T10:47:49;8.20;;;4.60;;
67757;SDS011;54562;47.620;18.786;2023-03-31T10:51:10;9.40;;;4.80;;
67757;SDS011;54562;47.620;18.786;2023-03-31T10:54:20;9.30;;;4.90;;
67757;SDS011;54562;47.620;18.786;2023-03-31T10:57:34;8.10;;;4.60;;
67757;SDS011;54562;47.620;18.786;2023-03-31T11:00:59;7.60;;;4.40;;
67757;SDS011;54562;47.620;18.786;2023-03-31T11:04:32;7.80;;;3.80;;
67757;SDS011;54562;47.620;18.786;2023-03-31T11:07:58;6.80;;;3.30;;
67757;SDS011;54562;47.620;18.786;2023-03-31T11:11:26;9.20;;;4.00;;
67757;SDS011;54562;47.620;18.786;2023-03-31T11:14:57;7.50;;;3.50;;
67757;SDS011;54562;47.620;18.786;2023-03-31T11:18:24;6.80;;;3.60;;
67757;SDS011;54562;47.620;18.786;2023-03-31T11:21:53;6.70;;;3.40;;
67757;SDS011;54562;47.620;18.786;2023-03-31T11:25:17;5.70;;;2.70;;
67757;SDS011;54562;47.620;18.786;2023-03-31T11:32:19;8.10;;;3.20;;
67757;SDS011;54562;47.620;18.786;2023-03-31T11:35:46;7.80;;;3.20;;
67757;SDS011;54562;47.620;18.786;2023-03-31T11:39:16;6.60;;;3.20;;
67757;SDS011;54562;47.620;18.786;2023-03-31T11:42:38;7.10;;;3.40;;
67757;SDS011;54562;47.620;18.786;2023-03-31T11:45:54;8.10;;;2.80;;
67757;SDS011;54562;47.620;18.786;2023-03-31T11:49:14;6.30;;;2.80;;
67757;SDS011;54562;47.620;18.786;2023-03-31T11:52:29;5.30;;;2.70;;
67757;SDS011;54562;47.620;18.786;2023-03-31T11:55:41;6.10;;;2.90;;
67757;SDS011;54562;47.620;18.786;2023-03-31T11:58:55;6.60;;;2.80;;
67757;SDS011;54562;47.620;18.786;2023-03-31T12:02:13;6.70;;;2.70;;
67757;SDS011;54562;47.620;18.786;2023-03-31T12:05:27;6.80;;;3.10;;
67757;SDS011;54562;47.620;18.786;2023-03-31T12:08:40;5.80;;;2.60;;
67757;SDS011;54562;47.620;18.786;2023-03-31T12:11:55;6.30;;;2.80;;
67757;SDS011;54562;47.620;18.786;2023-03-31T12:15:16;5.50;;;2.50;;
67757;SDS011;54562;47.620;18.786;2023-03-31T12:18:31;5.60;;;2.80;;
67757;SDS011;54562;47.620;18.786;2023-03-31T12:21:48;7.20;;;2.90;;
67757;SDS011;54562;47.620;18.786;2023-03-31T12:25:00;6.00;;;2.60;;
67757;SDS011;54562;47.620;18.786;2023-03-31T12:28:09;7.70;;;2.70;;
67757;SDS011;54562;47.620;18.786;2023-03-31T12:31:21;7.10;;;2.70;;
67757;SDS011;54562;47.620;18.786;2023-03-31T12:34:32;7.30;;;2.90;;
67757;SDS011;54562;47.620;18.786;2023-03-31T12:38:19;6.60;;;2.60;;
67757;SDS011;54562;47.620;18.786;2023-03-31T12:41:46;8.10;;;3.50;;
67757;SDS011;54562;47.620;18.786;2023-03-31T12:45:16;9.50;;;3.40;;
67757;SDS011;54562;47.620;18.786;2023-03-31T12:48:39;6.80;;;2.80;;
67757;SDS011;54562;47.620;18.786;2023-03-31T12:55:34;5.80;;;2.70;;
67757;SDS011;54562;47.620;18.786;2023-03-31T12:58:46;7.30;;;3.10;;
67757;SDS011;54562;47.620;18.786;2023-03-31T13:02:24;6.40;;;3.10;;
67757;SDS011;54562;47.620;18.786;2023-03-31T13:05:47;9.30;;;3.70;;
67757;SDS011;54562;47.620;18.786;2023-03-31T13:08:57;8.50;;;3.50;;
67757;SDS011;54562;47.620;18.786;2023-03-31T13:12:11;6.00;;;2.80;;
67757;SDS011;54562;47.620;18.786;2023-03-31T13:15:24;6.40;;;3.00;;
67757;SDS011;54562;47.620;18.786;2023-03-31T13:18:34;6.40;;;3.00;;
67757;SDS011;54562;47.620;18.786;2023-03-31T13:21:57;7.50;;;3.00;;
67757;SDS011;54562;47.620;18.786;2023-03-31T13:29:22;9.20;;;3.30;;
67757;SDS011;54562;47.620;18.786;2023-03-31T13:35:45;8.20;;;4.20;;
67757;SDS011;54562;47.620;18.786;2023-03-31T13:39:07;7.50;;;4.00;;
67757;SDS011;54562;47.620;18.786;2023-03-31T13:42:45;6.20;;;3.20;;
67757;SDS011;54562;47.620;18.786;2023-03-31T13:46:21;7.20;;;3.20;;
67757;SDS011;54562;47.620;18.786;2023-03-31T13:53:31;6.80;;;3.30;;
67757;SDS011;54562;47.620;18.786;2023-03-31T13:57:04;11.30;;;5.00;;
67757;SDS011;54562;47.620;18.786;2023-03-31T14:00:46;11.30;;;5.20;;
67757;SDS011;54562;47.620;18.786;2023-03-31T14:04:09;10.30;;;4.00;;
67757;SDS011;54562;47.620;18.786;2023-03-31T14:07:36;9.20;;;3.80;;
67757;SDS011;54562;47.620;18.786;2023-03-31T14:10:49;8.80;;;3.60;;
67757;SDS011;54562;47.620;18.786;2023-03-31T14:14:06;8.80;;;3.70;;
67757;SDS011;54562;47.620;18.786;2023-03-31T14:17:18;6.70;;;3.20;;
67757;SDS011;54562;47.620;18.786;2023-03-31T14:20:35;7.70;;;3.50;;
67757;SDS011;54562;47.620;18.786;2023-03-31T14:24:03;8.30;;;4.00;;
67757;SDS011;54562;47.620;18.786;2023-03-31T14:27:29;6.40;;;3.10;;
67757;SDS011;54562;47.620;18.786;2023-03-31T14:31:06;7.70;;;3.60;;
67757;SDS011;54562;47.620;18.786;2023-03-31T14:34:36;8.20;;;3.60;;
67757;SDS011;54562;47.620;18.786;2023-03-31T14:37:52;6.90;;;3.20;;
67757;SDS011;54562;47.620;18.786;2023-03-31T14:41:02;9.30;;;3.90;;
67757;SDS011;54562;47.620;18.786;2023-03-31T14:44:14;8.70;;;3.80;;
67757;SDS011;54562;47.620;18.786;2023-03-31T14:47:26;8.90;;;3.90;;
67757;SDS011;54562;47.620;18.786;2023-03-31T14:50:36;7.90;;;3.70;;
67757;SDS011;54562;47.620;18.786;2023-03-31T14:53:47;10.90;;;3.30;;
67757;SDS011;54562;47.620;18.786;2023-03-31T14:57:00;8.90;;;3.50;;
67757;SDS011;54562;47.620;18.786;2023-03-31T15:00:14;7.30;;;3.50;;
67757;SDS011;54562;47.620;18.786;2023-03-31T15:03:27;7.80;;;4.00;;
67757;SDS011;54562;47.620;18.786;2023-03-31T15:06:36;8.00;;;3.90;;
67757;SDS011;54562;47.620;18.786;2023-03-31T15:09:49;7.20;;;3.40;;
67757;SDS011;54562;47.620;18.786;2023-03-31T15:12:57;7.70;;;3.80;;
67757;SDS011;54562;47.620;18.786;2023-03-31T15:19:41;9.10;;;3.90;;
67757;SDS011;54562;47.620;18.786;2023-03-31T15:22:50;9.40;;;4.10;;
67757;SDS011;54562;47.620;18.786;2023-03-31T15:26:00;10.00;;;4.20;;
67757;SDS011;54562;47.620;18.786;2023-03-31T15:29:18;7.20;;;4.00;;
67757;SDS011;54562;47.620;18.786;2023-03-31T15:32:29;8.60;;;4.30;;
67757;SDS011;54562;47.620;18.786;2023-03-31T15:35:40;8.70;;;4.00;;
67757;SDS011;54562;47.620;18.786;2023-03-31T15:38:56;7.90;;;3.70;;
67757;SDS011;54562;47.620;18.786;2023-03-31T15:42:07;8.90;;;3.60;;
67757;SDS011;54562;47.620;18.786;2023-03-31T15:45:37;7.40;;;3.70;;
67757;SDS011;54562;47.620;18.786;2023-03-31T15:48:53;7.50;;;3.30;;
67757;SDS011;54562;47.620;18.786;2023-03-31T15:52:02;8.00;;;3.40;;
67757;SDS011;54562;47.620;18.786;2023-03-31T15:55:25;9.00;;;3.70;;
67757;SDS011;54562;47.620;18.786;2023-03-31T15:58:55;10.40;;;3.80;;
67757;SDS011;54562;47.620;18.786;2023-03-31T16:05:31;7.90;;;3.50;;
67757;SDS011;54562;47.620;18.786;2023-03-31T16:09:08;8.30;;;3.70;;
67757;SDS011;54562;47.620;18.786;2023-03-31T16:12:21;9.00;;;3.90;;
67757;SDS011;54562;47.620;18.786;2023-03-31T16:15:34;10.00;;;3.70;;
67757;SDS011;54562;47.620;18.786;2023-03-31T16:18:47;9.40;;;3.80;;
67757;SDS011;54562;47.620;18.786;2023-03-31T16:21:58;7.50;;;3.50;;
67757;SDS011;54562;47.620;18.786;2023-03-31T16:25:16;7.70;;;4.00;;
67757;SDS011;54562;47.620;18.786;2023-03-31T16:28:28;9.00;;;3.90;;
67757;SDS011;54562;47.620;18.786;2023-03-31T16:31:39;7.60;;;4.00;;
67757;SDS011;54562;47.620;18.786;2023-03-31T16:34:56;7.40;;;3.50;;
67757;SDS011;54562;47.620;18.786;2023-03-31T16:38:05;8.30;;;4.00;;
67757;SDS011;54562;47.620;18.786;2023-03-31T16:41:15;8.50;;;4.00;;
67757;SDS011;54562;47.620;18.786;2023-03-31T16:44:23;9.90;;;4.40;;
67757;SDS011;54562;47.620;18.786;2023-03-31T16:47:31;10.40;;;5.00;;
67757;SDS011;54562;47.620;18.786;2023-03-31T16:50:40;10.50;;;4.90;;
67757;SDS011;54562;47.620;18.786;2023-03-31T16:53:48;8.80;;;4.50;;
67757;SDS011;54562;47.620;18.786;2023-03-31T16:56:57;10.10;;;4.10;;
67757;SDS011;54562;47.620;18.786;2023-03-31T17:00:07;10.80;;;6.00;;
67757;SDS011;54562;47.620;18.786;2023-03-31T17:03:19;13.40;;;5.40;;
67757;SDS011;54562;47.620;18.786;2023-03-31T17:06:29;11.60;;;5.40;;
67757;SDS011;54562;47.620;18.786;2023-03-31T17:09:36;10.00;;;5.30;;
67757;SDS011;54562;47.620;18.786;2023-03-31T17:12:45;9.70;;;5.00;;
67757;SDS011;54562;47.620;18.786;2023-03-31T17:15:53;9.20;;;4.60;;
67757;SDS011;54562;47.620;18.786;2023-03-31T17:19:19;9.00;;;4.20;;
67757;SDS011;54562;47.620;18.786;2023-03-31T17:22:31;8.50;;;4.10;;
67757;SDS011;54562;47.620;18.786;2023-03-31T17:25:48;10.40;;;4.20;;
67757;SDS011;54562;47.620;18.786;2023-03-31T17:28:58;9.30;;;3.80;;
67757;SDS011;54562;47.620;18.786;2023-03-31T17:32:06;8.90;;;4.40;;
67757;SDS011;54562;47.620;18.786;2023-03-31T17:35:18;9.60;;;4.70;;
67757;SDS011;54562;47.620;18.786;2023-03-31T17:38:26;8.40;;;3.90;;
67757;SDS011;54562;47.620;18.786;2023-03-31T17:41:35;8.50;;;3.70;;
67757;SDS011;54562;47.620;18.786;2023-03-31T17:44:43;9.30;;;3.60;;
67757;SDS011;54562;47.620;18.786;2023-03-31T17:47:54;9.00;;;4.10;;
67757;SDS011;54562;47.620;18.786;2023-03-31T17:51:05;9.80;;;4.70;;
67757;SDS011;54562;47.620;18.786;2023-03-31T17:54:16;8.50;;;3.80;;
67757;SDS011;54562;47.620;18.786;2023-03-31T17:57:24;7.10;;;3.70;;
67757;SDS011;54562;47.620;18.786;2023-03-31T18:00:32;8.80;;;4.30;;
67757;SDS011;54562;47.620;18.786;2023-03-31T18:03:41;8.30;;;4.00;;
67757;SDS011;54562;47.620;18.786;2023-03-31T18:06:50;7.50;;;4.30;;
67757;SDS011;54562;47.620;18.786;2023-03-31T18:09:59;11.40;;;5.70;;
67757;SDS011;54562;47.620;18.786;2023-03-31T18:13:09;12.00;;;5.80;;
67757;SDS011;54562;47.620;18.786;2023-03-31T18:16:18;11.20;;;5.50;;
67757;SDS011;54562;47.620;18.786;2023-03-31T18:19:27;8.90;;;4.50;;
67757;SDS011;54562;47.620;18.786;2023-03-31T18:22:36;7.60;;;4.00;;
67757;SDS011;54562;47.620;18.786;2023-03-31T18:25:45;8.00;;;4.50;;
67757;SDS011;54562;47.620;18.786;2023-03-31T18:28:54;8.80;;;5.10;;
67757;SDS011;54562;47.620;18.786;2023-03-31T18:32:03;11.40;;;5.40;;
67757;SDS011;54562;47.620;18.786;2023-03-31T18:35:17;12.50;;;5.70;;
67757;SDS011;54562;47.620;18.786;2023-03-31T18:38:27;11.20;;;5.30;;
67757;SDS011;54562;47.620;18.786;2023-03-31T18:41:41;8.60;;;4.80;;
67757;SDS011;54562;47.620;18.786;2023-03-31T18:44:52;10.20;;;5.00;;
67757;SDS011;54562;47.620;18.786;2023-03-31T18:48:00;10.90;;;4.70;;
67757;SDS011;54562;47.620;18.786;2023-03-31T18:51:09;8.80;;;4.30;;
67757;SDS011;54562;47.620;18.786;2023-03-31T18:54:18;8.80;;;3.60;;
67757;SDS011;54562;47.620;18.786;2023-03-31T18:57:27;7.10;;;3.40;;
67757;SDS011;54562;47.620;18.786;2023-03-31T19:00:36;6.70;;;3.60;;
67757;SDS011;54562;47.620;18.786;2023-03-31T19:03:45;8.40;;;3.80;;
67757;SDS011;54562;47.620;18.786;2023-03-31T19:06:53;7.80;;;3.30;;
67757;SDS011;54562;47.620;18.786;2023-03-31T19:10:01;10.40;;;5.30;;
67757;SDS011;54562;47.620;18.786;2023-03-31T19:13:13;6.10;;;2.60;;
67757;SDS011;54562;47.620;18.786;2023-03-31T19:16:22;9.00;;;2.70;;
67757;SDS011;54562;47.620;18.786;2023-03-31T19:19:31;7.20;;;3.30;;
67757;SDS011;54562;47.620;18.786;2023-03-31T19:22:40;5.30;;;2.20;;
67757;SDS011;54562;47.620;18.786;2023-03-31T19:25:51;4.50;;;1.90;;
67757;SDS011;54562;47.620;18.786;2023-03-31T19:29:01;5.00;;;1.90;;
67757;SDS011;54562;47.620;18.786;2023-03-31T19:32:12;5.80;;;2.00;;
67757;SDS011;54562;47.620;18.786;2023-03-31T19:35:21;5.80;;;1.80;;
67757;SDS011;54562;47.620;18.786;2023-03-31T19:38:31;3.70;;;1.70;;
67757;SDS011;54562;47.620;18.786;2023-03-31T19:41:43;4.70;;;1.70;;
67757;SDS011;54562;47.620;18.786;2023-03-31T19:44:51;4.70;;;1.70;;